createdAt,value
2023-04-29T00:00:19.532Z,0.00
2023-04-29T00:01:19.502Z,0.00
2023-04-29T00:02:19.579Z,0.00
2023-04-29T00:03:19.781Z,0.00
2023-04-29T00:04:19.570Z,0.00
2023-04-29T00:05:19.595Z,0.00
2023-04-29T00:06:19.457Z,0.00
2023-04-29T00:07:19.423Z,0.00
2023-04-29T00:08:19.398Z,0.00
2023-04-29T00:09:19.433Z,0.00
2023-04-29T00:10:19.375Z,0.00
2023-04-29T00:11:19.357Z,0.00
2023-04-29T00:12:19.406Z,0.00
2023-04-29T00:13:19.399Z,0.00
2023-04-29T00:14:19.348Z,0.00
2023-04-29T00:15:19.348Z,0.00
2023-04-29T00:16:19.336Z,0.00
2023-04-29T00:17:19.298Z,0.00
2023-04-29T00:18:19.314Z,0.00
2023-04-29T00:19:19.287Z,0.00
2023-04-29T00:20:19.271Z,0.00
2023-04-29T00:21:19.285Z,0.00
2023-04-29T00:22:19.231Z,0.00
2023-04-29T00:23:19.250Z,0.00
2023-04-29T00:24:19.223Z,0.00
2023-04-29T00:25:19.221Z,0.00
2023-04-29T00:26:19.208Z,0.00
2023-04-29T00:27:19.182Z,0.00
2023-04-29T00:28:19.256Z,0.00
2023-04-29T00:29:19.204Z,0.00
2023-04-29T00:30:19.216Z,0.00
2023-04-29T00:31:19.162Z,0.00
2023-04-29T00:32:19.154Z,0.00
2023-04-29T00:33:19.180Z,0.00
2023-04-29T00:34:19.087Z,0.00
2023-04-29T00:35:19.089Z,0.00
2023-04-29T00:36:19.067Z,0.00
2023-04-29T00:37:19.068Z,0.00
2023-04-29T00:38:19.084Z,0.00
2023-04-29T00:39:19.046Z,0.00
2023-04-29T00:40:19.253Z,0.00
2023-04-29T00:41:19.025Z,0.00
2023-04-29T00:42:19.011Z,0.00
2023-04-29T00:43:19.015Z,0.00
2023-04-29T00:44:18.995Z,0.00
2023-04-29T00:45:18.974Z,0.00
2023-04-29T00:46:18.973Z,0.00
2023-04-29T00:47:18.975Z,0.00
2023-04-29T00:48:18.944Z,0.00
2023-04-29T00:49:18.935Z,0.00
2023-04-29T00:50:19.203Z,0.00
2023-04-29T00:51:18.906Z,0.00
2023-04-29T00:52:18.892Z,0.00
2023-04-29T00:53:18.972Z,0.00
2023-04-29T00:54:18.900Z,0.00
2023-04-29T00:55:18.882Z,0.00
2023-04-29T00:56:18.869Z,0.00
2023-04-29T00:57:18.840Z,0.00
2023-04-29T00:58:18.957Z,0.00
2023-04-29T00:59:18.822Z,0.00
2023-04-29T01:00:18.809Z,0.00
2023-04-29T01:01:18.849Z,0.00
2023-04-29T01:02:18.877Z,0.00
2023-04-29T01:03:18.922Z,0.00
2023-04-29T01:04:18.791Z,0.00
2023-04-29T01:05:18.758Z,0.00
2023-04-29T01:06:18.740Z,0.00
2023-04-29T01:07:18.734Z,0.00
2023-04-29T01:08:18.873Z,0.00
2023-04-29T01:09:18.712Z,0.00
2023-04-29T01:10:18.718Z,0.00
2023-04-29T01:11:18.723Z,0.00
2023-04-29T01:12:18.678Z,0.00
2023-04-29T01:13:18.691Z,0.00
2023-04-29T01:14:18.667Z,0.00
2023-04-29T01:15:18.664Z,0.00
2023-04-29T01:16:18.696Z,0.00
2023-04-29T01:17:18.722Z,0.00
2023-04-29T01:18:18.638Z,0.00
2023-04-29T01:19:18.612Z,0.00
2023-04-29T01:20:18.607Z,0.00
2023-04-29T01:21:18.580Z,0.00
2023-04-29T06:02:15.830Z,90.00
2023-04-29T06:03:19.752Z,95.62
2023-04-29T06:04:18.444Z,95.62
2023-04-29T06:05:20.542Z,101.25
2023-04-29T06:06:17.877Z,112.50
2023-04-29T06:07:17.709Z,123.75
2023-04-29T06:08:16.700Z,129.38
2023-04-29T06:09:27.435Z,123.75
2023-04-29T06:10:19.868Z,118.12
2023-04-29T06:11:15.939Z,140.62
2023-04-29T06:12:19.738Z,135.00
2023-04-29T06:13:16.761Z,112.50
2023-04-29T06:14:17.006Z,112.50
2023-04-29T06:15:17.621Z,135.00
2023-04-29T06:16:16.321Z,140.62
2023-04-29T06:17:19.194Z,140.62
2023-04-29T06:18:16.370Z,135.00
2023-04-29T06:19:21.898Z,157.50
2023-04-29T06:20:30.358Z,157.50
2023-04-29T06:21:29.778Z,163.12
2023-04-29T06:22:45.421Z,168.75
2023-04-29T06:23:17.306Z,168.75
2023-04-29T06:26:42.513Z,157.50
2023-04-29T06:27:47.885Z,157.50
2023-04-29T06:28:40.720Z,180.00
2023-04-29T06:29:40.711Z,180.00
2023-04-29T06:30:40.714Z,180.00
2023-04-29T06:31:40.779Z,191.25
2023-04-29T06:32:40.718Z,196.88
2023-04-29T06:33:40.671Z,196.88
2023-04-29T06:34:40.667Z,202.50
2023-04-29T06:35:40.651Z,185.62
2023-04-29T06:36:40.653Z,196.88
2023-04-29T06:37:40.637Z,191.25
2023-04-29T06:38:40.653Z,174.38
2023-04-29T06:39:40.606Z,168.75
2023-04-29T06:40:40.585Z,185.62
2023-04-29T06:41:40.585Z,180.00
2023-04-29T06:42:40.622Z,180.00
2023-04-29T06:43:40.547Z,168.75
2023-04-29T06:44:40.566Z,185.62
2023-04-29T06:45:40.519Z,174.38
2023-04-29T06:46:40.663Z,191.25
2023-04-29T06:47:40.558Z,191.25
2023-04-29T06:48:40.506Z,185.62
2023-04-29T06:49:40.483Z,180.00
2023-04-29T06:50:40.486Z,185.62
2023-04-29T06:51:40.481Z,185.62
2023-04-29T06:52:40.482Z,185.62
2023-04-29T06:53:40.485Z,191.25
2023-04-29T06:54:40.474Z,196.88
2023-04-29T06:55:40.462Z,208.12
2023-04-29T06:56:40.461Z,219.38
2023-04-29T06:57:40.431Z,219.38
2023-04-29T06:58:40.388Z,225.00
2023-04-29T06:59:40.397Z,225.00
2023-04-29T07:00:40.375Z,219.38
2023-04-29T07:01:42.634Z,213.75
2023-04-29T07:02:40.466Z,213.75
2023-04-29T07:03:40.553Z,236.25
2023-04-29T07:04:40.407Z,247.50
2023-04-29T07:05:40.342Z,253.12
2023-04-29T07:06:40.351Z,253.12
2023-04-29T07:07:40.291Z,253.12
2023-04-29T07:08:40.279Z,258.75
2023-04-29T07:09:40.274Z,258.75
2023-04-29T07:10:40.265Z,258.75
2023-04-29T07:11:40.256Z,253.12
2023-04-29T07:12:40.240Z,253.12
2023-04-29T07:13:40.244Z,264.38
2023-04-29T07:14:40.222Z,275.62
2023-04-29T07:15:40.229Z,286.88
2023-04-29T07:16:40.313Z,292.50
2023-04-29T07:17:40.231Z,303.75
2023-04-29T07:18:40.177Z,303.75
2023-04-29T07:19:40.160Z,309.38
2023-04-29T07:20:40.236Z,315.00
2023-04-29T07:21:40.147Z,320.62
2023-04-29T07:22:40.142Z,315.00
2023-04-29T07:23:40.117Z,303.75
2023-04-29T07:24:40.117Z,292.50
2023-04-29T07:25:40.127Z,275.62
2023-04-29T07:26:40.142Z,247.50
2023-04-29T07:27:40.082Z,219.38
2023-04-29T07:28:40.076Z,230.62
2023-04-29T07:29:40.061Z,241.88
2023-04-29T07:30:40.073Z,247.50
2023-04-29T07:31:40.044Z,247.50
2023-04-29T07:32:40.071Z,247.50
2023-04-29T07:33:40.007Z,247.50
2023-04-29T07:34:40.117Z,247.50
2023-04-29T07:35:40.035Z,247.50
2023-04-29T07:36:39.987Z,247.50
2023-04-29T07:37:41.538Z,258.75
2023-04-29T07:38:39.964Z,264.38
2023-04-29T07:39:40.011Z,264.38
2023-04-29T07:40:39.938Z,253.12
2023-04-29T07:41:40.004Z,253.12
2023-04-29T07:42:39.917Z,264.38
2023-04-29T07:43:42.201Z,270.00
2023-04-29T07:44:39.918Z,264.38
2023-04-29T07:45:39.944Z,241.88
2023-04-29T07:46:39.969Z,230.62
2023-04-29T07:47:39.931Z,219.38
2023-04-29T07:48:39.858Z,208.12
2023-04-29T07:49:39.837Z,191.25
2023-04-29T07:50:39.833Z,185.62
2023-04-29T07:51:39.823Z,191.25
2023-04-29T07:52:39.852Z,208.12
2023-04-29T07:53:39.807Z,219.38
2023-04-29T07:54:39.886Z,236.25
2023-04-29T07:55:39.780Z,281.25
2023-04-29T07:56:39.805Z,343.12
2023-04-29T07:57:39.775Z,388.12
2023-04-29T07:58:39.792Z,393.75
2023-04-29T07:59:39.729Z,388.12
2023-04-29T08:00:39.764Z,388.12
2023-04-29T08:01:39.839Z,438.75
2023-04-29T08:02:39.875Z,551.25
2023-04-29T08:03:41.641Z,630.00
2023-04-29T08:04:39.994Z,641.25
2023-04-29T08:05:39.796Z,579.38
2023-04-29T08:06:39.660Z,545.62
2023-04-29T08:07:39.636Z,562.50
2023-04-29T08:08:39.630Z,500.62
2023-04-29T08:09:39.602Z,410.62
2023-04-29T08:10:39.616Z,348.75
2023-04-29T08:11:39.602Z,337.50
2023-04-29T08:12:39.586Z,337.50
2023-04-29T08:13:39.565Z,348.75
2023-04-29T08:14:39.998Z,376.88
2023-04-29T08:15:39.544Z,421.88
2023-04-29T08:16:39.572Z,478.12
2023-04-29T08:17:39.587Z,534.38
2023-04-29T08:18:39.513Z,596.25
2023-04-29T08:19:39.558Z,607.50
2023-04-29T08:20:39.549Z,562.50
2023-04-29T08:21:39.515Z,500.62
2023-04-29T08:22:39.480Z,455.62
2023-04-29T08:23:39.528Z,461.25
2023-04-29T08:24:39.472Z,506.25
2023-04-29T08:25:39.448Z,523.12
2023-04-29T08:26:39.458Z,551.25
2023-04-29T08:27:39.417Z,590.62
2023-04-29T08:28:39.679Z,568.12
2023-04-29T08:29:39.401Z,483.75
2023-04-29T08:30:39.402Z,427.50
2023-04-29T08:31:39.412Z,365.62
2023-04-29T08:32:39.415Z,298.12
2023-04-29T08:33:39.409Z,258.75
2023-04-29T08:34:39.365Z,258.75
2023-04-29T08:35:39.318Z,298.12
2023-04-29T08:36:39.345Z,326.25
2023-04-29T08:37:39.310Z,320.62
2023-04-29T08:38:39.297Z,326.25
2023-04-29T08:39:39.276Z,315.00
2023-04-29T08:40:39.275Z,275.62
2023-04-29T08:41:39.336Z,236.25
2023-04-29T08:42:39.248Z,202.50
2023-04-29T08:43:39.243Z,180.00
2023-04-29T08:44:39.260Z,202.50
2023-04-29T08:45:39.275Z,225.00
2023-04-29T08:46:39.248Z,219.38
2023-04-29T08:47:39.249Z,191.25
2023-04-29T08:48:39.251Z,191.25
2023-04-29T08:49:39.178Z,196.88
2023-04-29T08:50:39.212Z,196.88
2023-04-29T08:51:39.176Z,196.88
2023-04-29T08:52:39.151Z,185.62
2023-04-29T08:53:39.134Z,185.62
2023-04-29T08:54:39.159Z,196.88
2023-04-29T08:55:39.376Z,225.00
2023-04-29T08:56:39.119Z,241.88
2023-04-29T08:57:39.102Z,236.25
2023-04-29T08:58:39.073Z,219.38
2023-04-29T08:59:39.140Z,208.12
2023-04-29T09:00:39.047Z,202.50
2023-04-29T09:01:39.192Z,196.88
2023-04-29T09:02:39.110Z,185.62
2023-04-29T09:03:39.209Z,174.38
2023-04-29T09:04:39.162Z,163.12
2023-04-29T09:05:38.993Z,151.88
2023-04-29T09:06:39.022Z,151.88
2023-04-29T09:07:38.985Z,157.50
2023-04-29T09:08:38.952Z,163.12
2023-04-29T09:09:38.960Z,168.75
2023-04-29T09:10:38.942Z,185.62
2023-04-29T09:11:38.982Z,208.12
2023-04-29T09:12:38.954Z,219.38
2023-04-29T09:13:38.900Z,230.62
2023-04-29T09:14:38.928Z,241.88
2023-04-29T09:15:38.878Z,241.88
2023-04-29T09:16:38.952Z,241.88
2023-04-29T09:17:38.950Z,253.12
2023-04-29T09:18:38.856Z,275.62
2023-04-29T09:19:38.835Z,292.50
2023-04-29T09:20:38.831Z,315.00
2023-04-29T09:21:39.045Z,326.25
2023-04-29T09:22:38.844Z,331.88
2023-04-29T09:23:38.808Z,343.12
2023-04-29T09:24:38.798Z,343.12
2023-04-29T09:25:38.797Z,337.50
2023-04-29T09:26:38.774Z,354.38
2023-04-29T09:27:38.758Z,354.38
2023-04-29T09:28:38.756Z,348.75
2023-04-29T09:29:38.735Z,360.00
2023-04-29T09:30:38.726Z,393.75
2023-04-29T09:31:38.833Z,427.50
2023-04-29T09:32:39.431Z,438.75
2023-04-29T09:33:38.692Z,455.62
2023-04-29T09:34:38.689Z,450.00
2023-04-29T09:35:38.671Z,444.38
2023-04-29T09:36:38.658Z,450.00
2023-04-29T09:37:38.644Z,450.00
2023-04-29T09:38:38.632Z,483.75
2023-04-29T09:39:38.611Z,573.75
2023-04-29T09:40:50.066Z,742.50
2023-04-29T09:41:39.730Z,928.12
2023-04-29T09:42:38.598Z,1068.75
2023-04-29T09:43:38.593Z,1220.62
2023-04-29T09:44:38.646Z,1344.38
2023-04-29T09:45:38.558Z,1575.00
2023-04-29T09:46:38.673Z,1586.25
2023-04-29T09:47:38.578Z,1344.38
2023-04-29T09:48:38.540Z,1141.88
2023-04-29T09:49:38.523Z,1119.38
2023-04-29T09:50:38.557Z,1164.38
2023-04-29T09:51:38.563Z,1153.12
2023-04-29T09:52:38.471Z,1057.50
2023-04-29T09:53:38.475Z,911.25
2023-04-29T09:54:38.637Z,776.25
2023-04-29T09:55:38.448Z,697.50
2023-04-29T09:56:38.444Z,669.38
2023-04-29T09:57:38.441Z,669.38
2023-04-29T09:58:38.403Z,663.75
2023-04-29T09:59:38.479Z,646.88
2023-04-29T10:00:38.394Z,618.75
2023-04-29T10:01:38.417Z,579.38
2023-04-29T10:02:38.411Z,540.00
2023-04-29T10:03:39.037Z,500.62
2023-04-29T10:04:40.094Z,511.88
2023-04-29T10:05:38.335Z,528.75
2023-04-29T10:06:38.345Z,506.25
2023-04-29T10:07:38.309Z,461.25
2023-04-29T10:08:38.309Z,427.50
2023-04-29T10:09:38.285Z,410.62
2023-04-29T10:10:38.280Z,433.12
2023-04-29T10:11:38.923Z,495.00
2023-04-29T10:12:38.263Z,517.50
2023-04-29T10:13:38.452Z,500.62
2023-04-29T10:14:38.230Z,483.75
2023-04-29T10:15:38.262Z,461.25
2023-04-29T10:16:38.357Z,444.38
2023-04-29T10:17:38.201Z,444.38
2023-04-29T10:18:38.248Z,444.38
2023-04-29T10:19:38.225Z,438.75
2023-04-29T10:20:38.182Z,433.12
2023-04-29T10:21:38.187Z,427.50
2023-04-29T10:22:38.158Z,416.25
2023-04-29T10:23:38.133Z,399.38
2023-04-29T10:24:38.133Z,393.75
2023-04-29T10:25:38.116Z,399.38
2023-04-29T10:26:38.129Z,399.38
2023-04-29T10:27:38.082Z,399.38
2023-04-29T10:28:38.087Z,405.00
2023-04-29T10:29:38.063Z,450.00
2023-04-29T10:30:38.060Z,466.88
2023-04-29T10:31:38.098Z,461.25
2023-04-29T10:32:49.882Z,427.50
2023-04-29T10:33:39.100Z,399.38
2023-04-29T10:34:38.013Z,382.50
2023-04-29T10:35:38.007Z,376.88
2023-04-29T10:36:37.992Z,371.25
2023-04-29T10:37:38.028Z,354.38
2023-04-29T10:38:38.004Z,331.88
2023-04-29T10:39:38.000Z,320.62
2023-04-29T10:40:37.979Z,326.25
2023-04-29T10:41:37.952Z,331.88
2023-04-29T10:42:37.957Z,326.25
2023-04-29T10:43:37.913Z,309.38
2023-04-29T10:44:37.930Z,298.12
2023-04-29T10:45:37.920Z,292.50
2023-04-29T10:46:38.055Z,292.50
2023-04-29T10:47:37.924Z,298.12
2023-04-29T10:48:37.893Z,303.75
2023-04-29T10:49:37.871Z,315.00
2023-04-29T10:50:37.861Z,320.62
2023-04-29T10:51:37.882Z,331.88
2023-04-29T10:52:37.832Z,354.38
2023-04-29T10:53:37.829Z,416.25
2023-04-29T10:54:37.800Z,483.75
2023-04-29T10:55:37.825Z,495.00
2023-04-29T10:56:37.851Z,444.38
2023-04-29T10:57:37.788Z,393.75
2023-04-29T10:58:37.779Z,365.62
2023-04-29T10:59:37.748Z,376.88
2023-04-29T11:00:37.744Z,393.75
2023-04-29T11:01:38.270Z,388.12
2023-04-29T11:02:37.778Z,371.25
2023-04-29T11:03:37.865Z,348.75
2023-04-29T11:04:37.708Z,326.25
2023-04-29T11:05:37.690Z,315.00
2023-04-29T11:06:37.779Z,309.38
2023-04-29T11:07:37.676Z,320.62
2023-04-29T11:08:37.678Z,331.88
2023-04-29T11:09:37.628Z,343.12
2023-04-29T11:10:37.617Z,343.12
2023-04-29T11:11:37.620Z,337.50
2023-04-29T11:12:37.597Z,315.00
2023-04-29T11:13:37.587Z,315.00
2023-04-29T11:14:37.703Z,320.62
2023-04-29T11:15:37.561Z,320.62
2023-04-29T11:17:37.585Z,315.00
2023-04-29T11:18:37.559Z,292.50
2023-04-29T11:19:37.520Z,281.25
2023-04-29T11:20:37.517Z,286.88
2023-04-29T11:21:37.495Z,286.88
2023-04-29T11:22:37.489Z,286.88
2023-04-29T11:23:37.563Z,281.25
2023-04-29T11:24:37.469Z,281.25
2023-04-29T11:25:39.504Z,275.62
2023-04-29T11:26:37.497Z,264.38
2023-04-29T11:27:37.425Z,258.75
2023-04-29T11:28:37.449Z,258.75
2023-04-29T11:29:37.425Z,264.38
2023-04-29T11:30:37.403Z,247.50
2023-04-29T11:31:37.542Z,241.88
2023-04-29T11:32:37.713Z,253.12
2023-04-29T11:33:37.495Z,258.75
2023-04-29T11:34:37.385Z,253.12
2023-04-29T11:35:37.344Z,258.75
2023-04-29T11:36:37.337Z,258.75
2023-04-29T11:37:37.338Z,258.75
2023-04-29T11:38:37.310Z,258.75
2023-04-29T11:39:37.298Z,258.75
2023-04-29T11:40:37.301Z,258.75
2023-04-29T11:41:37.284Z,253.12
2023-04-29T11:42:37.267Z,258.75
2023-04-29T11:43:37.248Z,264.38
2023-04-29T11:44:37.320Z,270.00
2023-04-29T11:45:37.278Z,275.62
2023-04-29T11:46:37.347Z,281.25
2023-04-29T11:47:37.309Z,281.25
2023-04-29T11:48:37.242Z,275.62
2023-04-29T11:49:37.223Z,264.38
2023-04-29T11:50:37.237Z,258.75
2023-04-29T11:51:37.177Z,258.75
2023-04-29T11:52:37.316Z,253.12
2023-04-29T11:53:37.237Z,241.88
2023-04-29T11:54:37.146Z,236.25
2023-04-29T11:55:37.136Z,241.88
2023-04-29T11:56:37.148Z,241.88
2023-04-29T11:57:37.126Z,247.50
2023-04-29T11:58:37.218Z,247.50
2023-04-29T11:59:37.097Z,258.75
2023-04-29T12:00:37.071Z,275.62
2023-04-29T12:01:37.056Z,281.25
2023-04-29T12:02:37.156Z,264.38
2023-04-29T12:03:37.311Z,247.50
2023-04-29T12:04:37.159Z,241.88
2023-04-29T12:05:37.088Z,236.25
2023-04-29T12:06:37.018Z,230.62
2023-04-29T12:07:37.228Z,230.62
2023-04-29T12:08:37.009Z,230.62
2023-04-29T12:09:37.002Z,236.25
2023-04-29T12:10:36.984Z,247.50
2023-04-29T12:11:36.942Z,270.00
2023-04-29T12:12:36.951Z,292.50
2023-04-29T12:13:36.932Z,309.38
2023-04-29T12:14:36.911Z,309.38
2023-04-29T12:15:38.926Z,298.12
2023-04-29T12:16:37.035Z,281.25
2023-04-29T12:17:36.935Z,258.75
2023-04-29T12:18:36.891Z,247.50
2023-04-29T12:19:36.856Z,236.25
2023-04-29T12:20:36.860Z,230.62
2023-04-29T12:21:36.843Z,219.38
2023-04-29T12:22:36.888Z,219.38
2023-04-29T12:23:36.820Z,219.38
2023-04-29T12:24:36.813Z,213.75
2023-04-29T12:25:36.802Z,219.38
2023-04-29T12:26:36.788Z,219.38
2023-04-29T12:27:36.884Z,219.38
2023-04-29T12:28:36.755Z,219.38
2023-04-29T12:29:36.762Z,225.00
2023-04-29T12:30:36.751Z,219.38
2023-04-29T12:31:36.795Z,213.75
2023-04-29T12:32:36.793Z,213.75
2023-04-29T12:33:36.705Z,208.12
2023-04-29T12:34:36.696Z,208.12
2023-04-29T12:35:36.772Z,202.50
2023-04-29T12:36:36.668Z,196.88
2023-04-29T12:37:36.656Z,196.88
2023-04-29T12:38:36.658Z,196.88
2023-04-29T12:39:36.633Z,202.50
2023-04-29T12:40:36.634Z,213.75
2023-04-29T12:41:36.627Z,225.00
2023-04-29T12:42:36.607Z,253.12
2023-04-29T12:43:36.592Z,298.12
2023-04-29T12:44:36.600Z,337.50
2023-04-29T12:45:36.587Z,360.00
2023-04-29T12:46:36.599Z,348.75
2023-04-29T12:47:36.561Z,326.25
2023-04-29T12:48:36.563Z,309.38
2023-04-29T12:49:36.557Z,298.12
2023-04-29T12:50:36.532Z,292.50
2023-04-29T12:51:36.617Z,281.25
2023-04-29T12:52:36.982Z,258.75
2023-04-29T12:53:36.497Z,241.88
2023-04-29T12:54:36.458Z,230.62
2023-04-29T12:55:36.486Z,225.00
2023-04-29T12:56:36.446Z,225.00
2023-04-29T12:57:36.433Z,236.25
2023-04-29T12:58:36.710Z,264.38
2023-04-29T12:59:36.414Z,303.75
2023-04-29T13:00:36.412Z,315.00
2023-04-29T13:01:36.565Z,320.62
2023-04-29T13:02:36.902Z,360.00
2023-04-29T13:03:36.566Z,421.88
2023-04-29T13:04:36.504Z,461.25
2023-04-29T13:05:36.409Z,495.00
2023-04-29T13:06:36.407Z,556.88
2023-04-29T13:07:37.115Z,646.88
2023-04-29T13:08:36.306Z,697.50
2023-04-29T13:09:36.298Z,714.38
2023-04-29T13:10:36.305Z,736.88
2023-04-29T13:11:36.296Z,731.25
2023-04-29T13:12:36.283Z,725.62
2023-04-29T13:13:36.252Z,697.50
2023-04-29T13:14:36.239Z,630.00
2023-04-29T13:15:36.331Z,585.00
2023-04-29T13:16:36.729Z,579.38
2023-04-29T13:17:36.240Z,585.00
2023-04-29T13:18:36.553Z,585.00
2023-04-29T13:19:50.280Z,534.38
2023-04-29T13:20:41.389Z,461.25
2023-04-29T13:21:37.172Z,399.38
2023-04-29T13:22:36.150Z,365.62
2023-04-29T13:23:36.157Z,360.00
2023-04-29T13:24:36.127Z,371.25
2023-04-29T13:25:36.157Z,376.88
2023-04-29T13:26:36.109Z,365.62
2023-04-29T13:27:36.099Z,348.75
2023-04-29T13:28:36.084Z,337.50
2023-04-29T13:29:36.075Z,315.00
2023-04-29T13:30:36.092Z,292.50
2023-04-29T13:31:36.105Z,270.00
2023-04-29T13:32:43.985Z,258.75
2023-04-29T13:33:39.799Z,253.12
2023-04-29T13:34:36.016Z,264.38
2023-04-29T13:35:36.050Z,286.88
2023-04-29T13:36:36.072Z,320.62
2023-04-29T13:37:36.171Z,354.38
2023-04-29T13:38:36.860Z,376.88
2023-04-29T13:39:38.324Z,382.50
2023-04-29T13:40:39.285Z,382.50
2023-04-29T13:41:37.302Z,399.38
2023-04-29T13:42:45.286Z,416.25
2023-04-29T13:43:39.023Z,438.75
2023-04-29T13:44:50.979Z,450.00
2023-04-29T13:45:39.980Z,455.62
2023-04-29T13:46:38.053Z,455.62
2023-04-29T13:47:45.983Z,450.00
2023-04-29T13:49:10.263Z,478.12
2023-04-29T13:50:22.539Z,545.62
2023-04-29T13:51:14.526Z,596.25
2023-04-29T13:52:20.281Z,624.38
2023-04-29T13:53:19.317Z,646.88
2023-04-29T13:57:59.148Z,843.75
2023-04-29T13:59:44.841Z,871.88
2023-04-29T14:02:36.809Z,815.62
2023-04-29T14:03:36.083Z,776.25
2023-04-29T14:04:35.832Z,736.88
2023-04-29T14:05:35.910Z,720.00
2023-04-29T14:06:35.682Z,714.38
2023-04-29T14:07:35.654Z,708.75
2023-04-29T14:08:35.664Z,725.62
2023-04-29T14:09:35.637Z,736.88
2023-04-29T14:10:35.659Z,697.50
2023-04-29T14:11:35.611Z,652.50
2023-04-29T14:12:35.597Z,618.75
2023-04-29T14:13:35.596Z,596.25
2023-04-29T14:14:35.577Z,607.50
2023-04-29T14:15:35.622Z,646.88
2023-04-29T14:16:35.558Z,708.75
2023-04-29T14:17:35.584Z,753.75
2023-04-29T14:18:35.540Z,810.00
2023-04-29T14:19:35.529Z,843.75
2023-04-29T14:20:35.524Z,860.62
2023-04-29T14:21:35.500Z,866.25
2023-04-29T14:22:35.485Z,871.88
2023-04-29T14:23:35.480Z,871.88
2023-04-29T14:24:35.553Z,871.88
2023-04-29T14:25:35.472Z,866.25
2023-04-29T14:26:35.444Z,871.88
2023-04-29T14:27:35.457Z,855.00
2023-04-29T14:28:35.417Z,821.25
2023-04-29T14:29:35.412Z,793.12
2023-04-29T14:30:35.408Z,765.00
2023-04-29T14:31:35.548Z,748.12
2023-04-29T14:32:35.397Z,748.12
2023-04-29T14:33:35.364Z,748.12
2023-04-29T14:34:35.357Z,748.12
2023-04-29T14:35:35.397Z,748.12
2023-04-29T14:36:35.365Z,736.88
2023-04-29T14:37:35.331Z,720.00
2023-04-29T14:38:35.386Z,703.12
2023-04-29T14:39:35.362Z,691.88
2023-04-29T14:40:35.310Z,697.50
2023-04-29T14:41:35.280Z,714.38
2023-04-29T14:42:35.270Z,708.75
2023-04-29T14:43:35.255Z,675.00
2023-04-29T14:44:35.288Z,646.88
2023-04-29T14:45:35.251Z,630.00
2023-04-29T14:46:35.311Z,624.38
2023-04-29T14:47:35.246Z,613.12
2023-04-29T14:48:35.202Z,585.00
2023-04-29T14:49:35.191Z,562.50
2023-04-29T14:50:35.189Z,545.62
2023-04-29T14:51:35.178Z,551.25
2023-04-29T14:52:35.158Z,573.75
2023-04-29T14:53:35.142Z,596.25
2023-04-29T14:54:35.158Z,601.88
2023-04-29T14:55:35.145Z,585.00
2023-04-29T14:56:35.120Z,556.88
2023-04-29T14:57:35.114Z,517.50
2023-04-29T14:58:35.433Z,489.38
2023-04-29T14:59:35.070Z,455.62
2023-04-29T15:00:35.083Z,421.88
2023-04-29T15:01:35.077Z,399.38
2023-04-29T15:02:35.090Z,399.38
2023-04-29T15:04:36.115Z,421.88
2023-04-29T15:05:35.153Z,421.88
2023-04-29T15:06:35.096Z,421.88
2023-04-29T15:07:34.991Z,405.00
2023-04-29T15:08:34.970Z,388.12
2023-04-29T15:09:35.005Z,388.12
2023-04-29T15:10:34.966Z,393.75
2023-04-29T15:11:34.933Z,388.12
2023-04-29T15:12:34.927Z,376.88
2023-04-29T15:13:34.917Z,365.62
2023-04-29T15:14:34.967Z,348.75
2023-04-29T15:15:34.915Z,326.25
2023-04-29T15:16:35.013Z,309.38
2023-04-29T15:17:35.018Z,309.38
2023-04-29T15:18:34.861Z,303.75
2023-04-29T15:19:34.852Z,292.50
2023-04-29T15:20:34.889Z,270.00
2023-04-29T15:21:34.816Z,241.88
2023-04-29T15:22:34.818Z,236.25
2023-04-29T15:23:34.881Z,241.88
2023-04-29T15:24:34.793Z,247.50
2023-04-29T15:25:36.007Z,247.50
2023-04-29T15:26:34.820Z,241.88
2023-04-29T15:27:34.768Z,236.25
2023-04-29T15:28:34.867Z,236.25
2023-04-29T15:29:34.743Z,241.88
2023-04-29T15:30:34.742Z,241.88
2023-04-29T15:31:34.775Z,241.88
2023-04-29T15:32:34.746Z,241.88
2023-04-29T15:33:34.711Z,241.88
2023-04-29T15:34:34.688Z,241.88
2023-04-29T15:35:34.820Z,241.88
2023-04-29T15:36:34.674Z,247.50
2023-04-29T15:37:34.764Z,253.12
2023-04-29T15:38:34.661Z,253.12
2023-04-29T15:39:34.659Z,258.75
2023-04-29T15:40:34.651Z,270.00
2023-04-29T15:41:34.621Z,281.25
2023-04-29T15:42:34.598Z,286.88
2023-04-29T15:43:34.634Z,292.50
2023-04-29T15:44:34.578Z,292.50
2023-04-29T15:45:34.594Z,292.50
2023-04-29T15:46:34.553Z,292.50
2023-04-29T15:47:34.660Z,298.12
2023-04-29T15:48:34.535Z,298.12
2023-04-29T15:49:34.568Z,298.12
2023-04-29T15:50:34.528Z,292.50
2023-04-29T15:51:34.507Z,275.62
2023-04-29T15:52:34.491Z,253.12
2023-04-29T15:53:34.491Z,247.50
2023-04-29T15:54:34.468Z,241.88
2023-04-29T15:55:34.671Z,247.50
2023-04-29T15:56:34.472Z,241.88
2023-04-29T15:57:34.441Z,247.50
2023-04-29T15:58:34.470Z,253.12
2023-04-29T15:59:34.427Z,270.00
2023-04-29T16:00:34.456Z,286.88
2023-04-29T16:01:36.309Z,292.50
2023-04-29T16:02:34.386Z,298.12
2023-04-29T16:03:34.447Z,303.75
2023-04-29T16:04:34.373Z,315.00
2023-04-29T16:05:34.377Z,326.25
2023-04-29T16:06:34.394Z,343.12
2023-04-29T16:07:35.515Z,360.00
2023-04-29T16:08:34.317Z,365.62
2023-04-29T16:09:34.324Z,371.25
2023-04-29T16:10:34.820Z,365.62
2023-04-29T16:11:34.290Z,360.00
2023-04-29T16:12:34.293Z,354.38
2023-04-29T16:13:36.234Z,354.38
2023-04-29T16:14:34.258Z,348.75
2023-04-29T16:15:34.251Z,354.38
2023-04-29T16:16:34.297Z,354.38
2023-04-29T16:17:34.281Z,360.00
2023-04-29T16:18:34.237Z,365.62
2023-04-29T16:19:36.618Z,371.25
2023-04-29T16:20:34.240Z,371.25
2023-04-29T16:21:34.195Z,376.88
2023-04-29T16:22:34.354Z,388.12
2023-04-29T16:23:34.178Z,393.75
2023-04-29T16:24:34.177Z,405.00
2023-04-29T16:25:34.154Z,410.62
2023-04-29T16:26:34.124Z,416.25
2023-04-29T16:27:34.351Z,421.88
2023-04-29T16:28:34.106Z,427.50
2023-04-29T16:29:34.116Z,427.50
2023-04-29T16:30:34.085Z,427.50
2023-04-29T16:31:34.127Z,427.50
2023-04-29T16:32:34.080Z,427.50
2023-04-29T16:33:34.054Z,427.50
2023-04-29T16:34:34.039Z,427.50
2023-04-29T16:35:34.052Z,427.50
2023-04-29T16:36:34.057Z,438.75
2023-04-29T16:37:34.063Z,444.38
2023-04-29T16:38:33.991Z,438.75
2023-04-29T16:39:33.983Z,433.12
2023-04-29T16:40:34.009Z,421.88
2023-04-29T16:41:33.958Z,416.25
2023-04-29T16:42:33.951Z,405.00
2023-04-29T16:43:33.945Z,399.38
2023-04-29T16:44:33.936Z,393.75
2023-04-29T16:45:33.977Z,382.50
2023-04-29T16:46:33.940Z,382.50
2023-04-29T16:47:33.955Z,376.88
2023-04-29T16:48:33.942Z,371.25
2023-04-29T16:49:33.923Z,365.62
2023-04-29T16:50:33.916Z,360.00
2023-04-29T16:51:33.858Z,354.38
2023-04-29T16:52:33.944Z,348.75
2023-04-29T16:53:34.034Z,343.12
2023-04-29T16:54:33.880Z,331.88
2023-04-29T16:55:33.867Z,326.25
2023-04-29T16:56:33.793Z,315.00
2023-04-29T16:57:33.799Z,303.75
2023-04-29T16:58:33.882Z,292.50
2023-04-29T16:59:33.804Z,281.25
2023-04-29T17:00:33.793Z,264.38
2023-04-29T17:01:33.782Z,253.12
2023-04-29T17:02:33.806Z,241.88
2023-04-29T17:03:33.739Z,230.62
2023-04-29T17:04:33.811Z,219.38
2023-04-29T17:05:33.743Z,213.75
2023-04-29T17:06:33.771Z,196.88
2023-04-29T17:07:33.688Z,185.62
2023-04-29T17:08:33.679Z,174.38
2023-04-29T17:09:33.660Z,174.38
2023-04-29T17:10:33.655Z,168.75
2023-04-29T17:11:33.642Z,168.75
2023-04-29T17:12:33.630Z,168.75
2023-04-29T17:13:33.638Z,168.75
2023-04-29T17:14:33.601Z,163.12
2023-04-29T17:15:33.637Z,163.12
2023-04-29T17:16:33.659Z,157.50
2023-04-29T17:17:33.628Z,157.50
2023-04-29T17:18:33.554Z,151.88
2023-04-29T17:19:33.550Z,151.88
2023-04-29T17:20:33.579Z,157.50
2023-04-29T17:21:33.534Z,157.50
2023-04-29T17:22:33.535Z,163.12
2023-04-29T17:23:33.509Z,168.75
2023-04-29T17:24:33.508Z,168.75